Terminal Aerodrome Forecast
Issued by NWS Omaha/Valley, NE

Home | Current Version | Previous Version | Graphics & Text | Print | Product List | Glossary On
Versions: 1 2 3 4 5 6 7 8 9 10 11 12 13 14 15 16 17 18 19 20 21 22 23 24 25 26 27 28 29 30
523
FTUS43 KOAX 211858 AAA
TAFOFK
TAF AMD
KOFK 211858Z 2119/2218 18014KT P6SM BKN100
     FM212000 35008KT P6SM VCTS SCT025CB BKN050
      TEMPO 2120/2122 VRB15G35KT 3SM TSRA OVC025CB
     FM212300 32010KT P6SM VCTS SCT025CB BKN080
     FM220600 34006KT P6SM BKN100
     FM221000 34006KT 5SM BR SCT090=

USA.gov is the U.S. government's official web portal to all federal, state and local government web resources and services.